Main page
METAR-TAF:

METAR-TAF

Airports :

Killarney, Ireland

Kerry Airport

latitude: 52-10-51N, longitude: 9-31-26W, elevation: 34 m

Current weather observation

The report was made 42 minutes ago, at 06:30 UTC
Wind 8 kt from the Southwest, varying between South/Southwest and West
Temperature 13°C
Humidity 72%
Pressure 1018 hPa
Visibility 10 km or more
no clouds below 1500 m and no cumulonimbus

METAR: EIKY 190630Z 23008KT 210V270 CAVOK 13/08 Q1018

Time: 08:12 (07:12 UTC)

Forecast

The report was made 2 hours and 12 minutes ago, at 05:00 UTC
Forecast valid from 19 at 06 UTC to 19 at 15 UTC
Wind 12 kt from the West
Visibility 10 km or more
Few clouds at a height of 1700 ft
Scattered clouds at a height of 3000 ft
Probability 40% :
Temporary
from 19 at 08 UTC to 19 at 14 UTC
Wind 14 kt from the West with gusts up to 25 kt

TAF: EIKY 190500Z 1906/1915 27012KT 9999 FEW017 SCT030 PROB40 TEMPO 1908/1914 28014G25KT

Weather observations and forecasts of more than 4000 airports (METAR and TAF reports).

The available stations are represented by yellow and red dots on the map.

Hover mouse over dot to see the name of the station.

Then click to see weather observations and forecasts.

To change the map : click on the green buttons with a black cross to zoom in, on the green button with a dash to zoom out, or on the green arrows for adjacent maps.


METAR-TAF: